Flight Track Log - Related Links

Times and Time Zones

All times are in EDT time to prevent confusion due to time zone crossing. See the JZA8745 flight status page for this flight to view local times or setup timezone preferences in your user account.

Time Position Orientation Groundspeed Altitude Reporting Facility
EDT Latitude Longitude Course Direction KTS MPH feet Rate Location/Type
Sun 03:21:55 PM 47.5667 -65.8833 239° Southwest 140 161 4,800  Level Moncton Center
Sun 03:22:55 PM 47.5333 -65.9667 239° Southwest 170 196 5,700 1,450 Climbing Moncton Center
Sun 03:23:55 PM 47.5167 -66.0167 244° Southwest 180 207 7,700 1,600 Climbing Moncton Center
Sun 03:24:55 PM 47.5000 -66.0833 250° West 170 196 8,900 1,150 Climbing Moncton Center
Sun 03:25:55 PM 47.4667 -66.1500 234° Southwest 180 207 10,000 1,050 Climbing Moncton Center
Sun 03:26:55 PM 47.4500 -66.2000 244° Southwest 180 207 11,000 850 Climbing Moncton Center
Sun 03:27:55 PM 47.4333 -66.2833 254° West 190 219 11,700 700 Climbing Moncton Center
Sun 03:28:55 PM 47.4000 -66.3500 234° Southwest 200 230 12,400 650 Climbing Moncton Center
Sun 03:29:55 PM 47.3833 -66.4167 250° West 200 230 13,000 700 Climbing Moncton Center
Sun 03:30:55 PM 47.3500 -66.5167 244° Southwest 210 242 13,800 800 Climbing Moncton Center
Sun 03:31:55 PM 47.3333 -66.5667 244° Southwest 200 230 14,600 700 Climbing Moncton Center
Sun 03:32:55 PM 47.3000 -66.6667 244° Southwest 200 230 15,200 600 Climbing Moncton Center
Sun 03:33:55 PM 47.2500 -66.7333 222° Southwest 210 242 15,800 600 Climbing Moncton Center
Sun 03:34:55 PM 47.2333 -66.8167 254° West 220 253 16,400 600 Climbing Moncton Center
Sun 03:35:55 PM 47.2000 -66.8833 234° Southwest 220 253 17,000 600 Climbing Moncton Center
Sun 03:36:55 PM 47.1667 -66.9833 244° Southwest 220 253 17,600 700 Climbing Moncton Center
Sun 03:37:55 PM 47.1500 -67.0500 250° West 220 253 18,400 650 Climbing Moncton Center
Sun 03:38:55 PM 47.1167 -67.1333 240° Southwest 220 253 18,900 500 Climbing Moncton Center
Sun 03:39:55 PM 47.1000 -67.2333 256° West 220 253 19,400 500 Climbing Moncton Center
Sun 03:40:55 PM 47.0667 -67.3000 234° Southwest 220 253 19,900 550 Climbing Moncton Center
Sun 03:41:55 PM 47.0167 -67.3667 222° Southwest 220 253 20,500 550 Climbing Moncton Center
Sun 03:42:55 PM 47.0000 -67.4333 250° West 210 242 21,000 500 Climbing Moncton Center
Sun 03:43:55 PM 46.9667 -67.5333 244° Southwest 220 253 21,500 500 Climbing Moncton Center
Sun 03:44:55 PM 46.9500 -67.6167 254° West 210 242 22,000 250 Climbing Moncton Center
Sun 03:45:55 PM 46.9167 -67.6833 234° Southwest 210 242 22,000  Level Moncton Center
Sun 03:46:55 PM 46.8833 -67.7500 234° Southwest 230 265 22,000  Level Moncton Center
Sun 03:47:55 PM 46.8667 -67.8500 256° West 220 253 22,000  Level Moncton Center
Sun 03:48:55 PM 46.8167 -67.9167 222° Southwest 230 265 22,000  Level Moncton Center
Sun 03:49:55 PM 46.7833 -67.9833 234° Southwest 230 265 22,000  Level Moncton Center
Sun 03:50:55 PM 46.7667 -68.0833 256° West 230 265 22,000  Level Moncton Center
Sun 03:51:55 PM 46.7333 -68.1667 240° Southwest 230 265 22,000  Level Moncton Center
Sun 03:52:55 PM 46.7167 -68.2500 254° West 230 265 22,000  Level Moncton Center
Sun 03:53:55 PM 46.7000 -68.3500 256° West 230 265 22,000  Level Moncton Center
Sun 03:54:55 PM 46.6500 -68.4167 222° Southwest 240 276 22,000  Level Moncton Center
Sun 03:55:55 PM 46.6333 -68.5167 256° West 240 276 22,000  Level Moncton Center
Sun 03:56:55 PM 46.6167 -68.6167 256° West 240 276 22,000  Level Moncton Center
Sun 03:57:55 PM 46.5833 -68.6833 234° Southwest 220 253 22,000  Level Moncton Center
Sun 03:58:55 PM 46.5667 -68.7833 256° West 230 265 22,000  Level Moncton Center
Sun 03:59:55 PM 46.5333 -68.8500 234° Southwest 230 265 22,000  Level Moncton Center
Sun 04:00:55 PM 46.5000 -68.9500 244° Southwest 230 265 22,000  Level Moncton Center
Sun 04:01:55 PM 46.4833 -69.0333 254° West 230 265 22,000  Level Moncton Center
Sun 04:02:55 PM 46.4500 -69.1167 240° Southwest 230 265 22,000  Level Moncton Center
Sun 04:03:55 PM 46.4500 -69.1833 270° West 230 265 22,000  Level Moncton Center
Sun 04:04:55 PM 46.4000 -69.2833 234° Southwest 220 253 22,000  Level Moncton Center
Sun 04:05:55 PM 46.3833 -69.3500 250° West 230 265 22,000  Level Moncton Center
Sun 04:06:34 PM 46.3667 -69.4000 244° Southwest 220 253 22,000  Level Montreal Center
Sun 04:07:16 PM 46.3606 -69.4728 263° West 236 272 22,000  Level Boston Center
Sun 04:08:17 PM 46.3356 -69.5556 246° West 231 266 22,000  Level Boston Center
Sun 04:09:15 PM 46.3083 -69.6378 244° Southwest 231 266 22,000  Level Boston Center
Sun 04:10:16 PM 46.2811 -69.7233 245° Southwest 231 266 22,000  Level Boston Center
Sun 04:11:17 PM 46.2561 -69.8056 246° West 231 266 22,000  Level Boston Center
Sun 04:12:15 PM 46.2289 -69.8908 245° Southwest 236 272 22,000  Level Boston Center
Sun 04:13:15 PM 46.2056 -69.9728 248° West 236 272 22,000  Level Boston Center
Sun 04:14:16 PM 46.1781 -70.0550 244° Southwest 236 272 22,000  Level Boston Center
Sun 04:15:17 PM 46.1528 -70.1369 246° West 236 272 22,000  Level Boston Center
Sun 04:15:55 PM 46.1333 -70.2000 246° West 220 253 22,000  Level Moncton Center
Sun 04:16:34 PM 46.1167 -70.2167 215° Southwest 220 253 22,000  Level Montreal Center
Sun 04:17:34 PM 46.0833 -70.3167 244° Southwest 220 253 22,000  Level Montreal Center
Sun 04:18:34 PM 46.0667 -70.3833 250° West 220 253 22,000  Level Montreal Center
Sun 04:19:34 PM 46.0333 -70.4667 240° Southwest 220 253 22,000  Level Montreal Center
Sun 04:20:34 PM 46.0000 -70.5333 234° Southwest 230 265 22,000  Level Montreal Center
Sun 04:21:34 PM 45.9833 -70.6333 257° West 230 265 22,000  Level Montreal Center
Sun 04:22:34 PM 45.9500 -70.7167 240° Southwest 230 265 22,000  Level Montreal Center
Sun 04:23:34 PM 45.9167 -70.7833 234° Southwest 240 276 22,000  Level Montreal Center
Sun 04:24:34 PM 45.9000 -70.8833 257° West 220 253 22,000  Level Montreal Center
Sun 04:25:34 PM 45.9000 -70.9500 270° West 210 242 22,000  Level Montreal Center
Sun 04:26:34 PM 45.9000 -71.0500 270° West 220 253 22,000  Level Montreal Center
Sun 04:27:34 PM 45.8833 -71.1500 257° West 210 242 22,000  Level Montreal Center
Sun 04:28:34 PM 45.8667 -71.2167 250° West 210 242 22,000  Level Montreal Center
Sun 04:29:34 PM 45.8833 -71.3000 286° West 220 253 22,000  Level Montreal Center
Sun 04:30:34 PM 45.8667 -71.4000 257° West 220 253 22,000  Level Montreal Center
Sun 04:31:34 PM 45.8500 -71.4833 254° West 220 253 22,000  Level Montreal Center
Sun 04:32:34 PM 45.8500 -71.5667 270° West 220 253 22,000  Level Montreal Center
Sun 04:33:34 PM 45.8333 -71.6667 257° West 220 253 22,000  Level Montreal Center
Sun 04:34:34 PM 45.8333 -71.7500 270° West 220 253 22,000  Level Montreal Center
Sun 04:35:34 PM 45.8333 -71.8333 270° West 220 253 22,000  Level Montreal Center
Sun 04:36:34 PM 45.8167 -71.9333 257° West 230 265 22,000  Level Montreal Center
Sun 04:37:34 PM 45.8000 -72.0167 254° West 230 265 22,000  Level Montreal Center
Sun 04:38:34 PM 45.7833 -72.1000 254° West 220 253 22,000 -200 Level Montreal Center
Sun 04:39:34 PM 45.8000 -72.2000 283° West 230 265 21,600 -750 Descending Montreal Center
Sun 04:40:34 PM 45.7833 -72.2833 254° West 250 288 20,500 -1,250 Descending Montreal Center
Sun 04:41:34 PM 45.7667 -72.4167 260° West 270 311 19,100 -1,350 Descending Montreal Center
Sun 04:42:34 PM 45.7500 -72.5000 254° West 280 322 17,800 -1,350 Descending Montreal Center
Sun 04:43:34 PM 45.7500 -72.6000 270° West 270 311 16,400 -1,450 Descending Montreal Center
Sun 04:44:34 PM 45.7500 -72.7333 270° West 270 311 14,900 -1,450 Descending Montreal Center
Sun 04:45:34 PM 45.7333 -72.8167 254° West 270 311 13,500 -1,450 Descending Montreal Center
Sun 04:46:34 PM 45.7167 -72.9500 260° West 260 299 12,000 -1,400 Descending Montreal Center
Sun 04:47:34 PM 45.7000 -73.0333 254° West 260 299 10,700 -1,350 Descending Montreal Center
Sun 04:48:34 PM 45.6833 -73.1333 257° West 260 299 9,300 -1,400 Descending Montreal Center
Sun 04:49:34 PM 45.6667 -73.2333 257° West 260 299 7,900 -1,350 Descending Montreal Center
Sun 04:50:34 PM 45.6667 -73.3333 270° West 230 265 6,600 -1,250 Descending Montreal Center
Sun 04:51:34 PM 45.6500 -73.4333 257° West 240 276 5,400 -1,100 Descending Montreal Center
Sun 04:52:34 PM 45.6333 -73.5167 254° West 230 265 4,400 -1,050 Descending Montreal Center
Sun 04:53:34 PM 45.5833 -73.5667 215° Southwest 220 253 3,300 -1,200 Descending Montreal Center
Sun 04:54:34 PM 45.5500 -73.6167 226° Southwest 200 230 2,000 -1,050 Descending Montreal Center
Sun 04:55:34 PM 45.5167 -73.6667 226° Southwest 160 184 1,200 -750 Descending Montreal Center
Sun 04:56:34 PM 45.4833 -73.7167 226° Southwest 110 127 500 -550 Descending Montreal Center
Sun 04:57:34 PM 45.4500 -73.7500 215° Southwest 120 138 100 -400 Descending Montreal Center

Login

Don't have an account? Register now (free) for customized features, flight alerts, and more!